Time,TemperatureF,DewpointF,PressureIn,WindDirection,WindDirectionDegrees,WindSpeedMPH,WindSpeedGustMPH,Humidity,HourlyPrecipIn,Conditions,Clouds,dailyrainin,SoftwareType,DateUTC
2013-02-14 00:01:00,38.1,30.9,28.94,SSW,213,0.0,0.0,75,0.00,,SKC,0.00,VWS V14.00,2013-02-14 05:01:00,
2013-02-14 00:06:00,38.1,30.9,28.94,SSW,213,0.0,0.0,75,0.00,,SKC,0.00,VWS V14.00,2013-02-14 05:06:00,
2013-02-14 00:09:00,38.3,31.1,28.94,SSW,213,0.0,0.0,75,0.00,,SKC,0.00,VWS V14.00,2013-02-14 05:09:00,
2013-02-14 00:16:00,38.1,30.9,28.94,SSW,213,0.0,0.0,75,0.00,,SKC,0.00,VWS V14.00,2013-02-14 05:16:00,
2013-02-14 00:21:00,38.1,30.9,28.94,SSW,213,0.0,0.0,75,0.00,,SKC,0.00,VWS V14.00,2013-02-14 05:21:00,
2013-02-14 00:26:00,38.1,30.9,28.94,SSW,213,0.0,0.0,75,0.00,,SKC,0.00,VWS V14.00,2013-02-14 05:26:00,
2013-02-14 00:31:00,38.3,31.1,28.94,SSW,213,0.0,0.0,75,0.00,,SKC,0.00,VWS V14.00,2013-02-14 05:31:00,
2013-02-14 00:36:00,38.3,31.1,28.94,SSW,213,0.0,0.0,75,0.00,,SKC,0.00,VWS V14.00,2013-02-14 05:36:00,
2013-02-14 00:41:00,38.3,31.1,28.94,SSW,213,0.0,0.0,75,0.00,,SKC,0.00,VWS V14.00,2013-02-14 05:41:00,
2013-02-14 00:46:00,38.3,31.1,28.94,SSW,213,0.0,0.0,75,0.00,,SKC,0.00,VWS V14.00,2013-02-14 05:46:00,
2013-02-14 00:51:00,38.3,31.1,28.94,SSW,213,0.0,0.0,75,0.00,,SKC,0.00,VWS V14.00,2013-02-14 05:51:00,
2013-02-14 00:56:00,38.3,31.1,28.94,SSW,213,0.0,0.0,75,0.00,,SKC,0.00,VWS V14.00,2013-02-14 05:56:00,
2013-02-14 01:01:00,38.3,31.1,28.94,SSW,213,0.0,0.0,75,0.00,,SKC,0.00,VWS V14.00,2013-02-14 06:01:00,
2013-02-14 01:06:00,38.3,31.1,28.94,SSW,213,0.0,0.0,75,0.00,,SKC,0.00,VWS V14.00,2013-02-14 06:06:00,
2013-02-14 01:11:00,38.3,31.1,28.94,SSW,213,0.0,0.0,75,0.00,,SKC,0.00,VWS V14.00,2013-02-14 06:11:00,
2013-02-14 01:16:00,38.3,31.4,28.94,SSW,213,0.0,0.0,76,0.00,,SKC,0.00,VWS V14.00,2013-02-14 06:16:00,
2013-02-14 01:21:00,38.1,31.2,28.94,SSW,213,0.0,0.0,76,0.00,,SKC,0.00,VWS V14.00,2013-02-14 06:21:00,
2013-02-14 01:26:00,38.1,31.2,28.94,SSW,213,0.0,0.0,76,0.00,,SKC,0.00,VWS V14.00,2013-02-14 06:26:00,
2013-02-14 01:31:00,38.1,31.2,28.94,SSW,213,0.0,0.0,76,0.00,,SKC,0.00,VWS V14.00,2013-02-14 06:31:00,
2013-02-14 01:36:00,38.1,31.2,28.94,SSW,213,0.0,0.0,76,0.00,,SKC,0.00,VWS V14.00,2013-02-14 06:36:00,
2013-02-14 01:41:00,38.1,31.2,28.94,SSW,213,0.0,0.0,76,0.00,,SKC,0.00,VWS V14.00,2013-02-14 06:41:00,
2013-02-14 01:46:00,38.1,31.2,28.97,SSW,213,0.0,0.0,76,0.00,,SKC,0.00,VWS V14.00,2013-02-14 06:46:00,
2013-02-14 01:51:00,38.1,31.2,28.97,SSW,213,0.0,0.0,76,0.00,,SKC,0.00,VWS V14.00,2013-02-14 06:51:00,
2013-02-14 01:56:00,38.1,31.2,28.97,SSW,213,0.0,0.0,76,0.00,,SKC,0.00,VWS V14.00,2013-02-14 06:56:00,
2013-02-14 02:01:00,38.1,31.2,28.97,SSW,213,0.0,0.0,76,0.00,,SKC,0.00,VWS V14.00,2013-02-14 07:01:00,
2013-02-14 02:06:00,38.1,31.2,28.97,SSW,213,0.0,0.0,76,0.00,,SKC,0.00,VWS V14.00,2013-02-14 07:06:00,
2013-02-14 02:11:00,38.1,31.2,28.97,SSW,213,0.0,0.0,76,0.00,,SKC,0.00,VWS V14.00,2013-02-14 07:11:00,
2013-02-14 02:16:00,38.1,31.2,28.97,SSW,213,0.0,0.0,76,0.00,,SKC,0.00,VWS V14.00,2013-02-14 07:16:00,
2013-02-14 02:21:00,37.9,31.1,28.97,SSW,213,0.0,0.0,76,0.00,,SKC,0.00,VWS V14.00,2013-02-14 07:21:00,
2013-02-14 02:26:00,37.9,31.1,28.97,SSW,213,0.0,0.0,76,0.00,,SKC,0.00,VWS V14.00,2013-02-14 07:26:00,
2013-02-14 02:31:00,37.9,31.1,28.97,SSW,213,0.0,0.0,76,0.00,,SKC,0.00,VWS V14.00,2013-02-14 07:31:00,
2013-02-14 02:36:00,37.9,31.1,28.97,SSW,213,0.0,0.0,76,0.00,,SKC,0.00,VWS V14.00,2013-02-14 07:36:00,
2013-02-14 02:41:00,37.9,31.1,28.97,SSW,213,0.0,0.0,76,0.00,,SKC,0.00,VWS V14.00,2013-02-14 07:41:00,
2013-02-14 02:46:00,37.9,31.1,28.97,SSW,213,0.0,0.0,76,0.00,,SKC,0.00,VWS V14.00,2013-02-14 07:46:00,
2013-02-14 02:51:00,37.9,31.1,28.97,SSW,213,0.0,0.0,76,0.00,,SKC,0.00,VWS V14.00,2013-02-14 07:51:00,
2013-02-14 02:56:00,37.9,31.1,28.97,SSW,213,0.0,0.0,76,0.00,,SKC,0.00,VWS V14.00,2013-02-14 07:56:00,
2013-02-14 03:02:00,37.9,31.1,28.97,SSW,213,0.0,0.0,76,0.00,,SKC,0.00,VWS V14.00,2013-02-14 08:02:00,
2013-02-14 03:07:00,37.9,31.1,28.97,SSW,213,0.0,0.0,76,0.00,,SKC,0.00,VWS V14.00,2013-02-14 08:07:00,
2013-02-14 03:12:00,37.9,31.1,28.97,SSW,213,0.0,0.0,76,0.00,,SKC,0.00,VWS V14.00,2013-02-14 08:12:00,
2013-02-14 03:17:00,37.9,31.1,28.97,SSW,213,0.0,0.0,76,0.00,,SKC,0.00,VWS V14.00,2013-02-14 08:17:00,
2013-02-14 03:22:00,37.8,30.9,28.97,SSW,213,0.0,0.0,76,0.00,,SKC,0.00,VWS V14.00,2013-02-14 08:22:00,
2013-02-14 03:27:00,37.8,30.9,28.97,SSW,213,0.0,0.0,76,0.00,,SKC,0.00,VWS V14.00,2013-02-14 08:27:00,
2013-02-14 03:32:00,37.6,30.7,28.97,SSW,213,0.0,0.0,76,0.00,,SKC,0.00,VWS V14.00,2013-02-14 08:32:00,
2013-02-14 03:37:00,37.6,30.7,28.97,SSW,213,0.0,0.0,76,0.00,,SKC,0.00,VWS V14.00,2013-02-14 08:37:00,
2013-02-14 03:42:00,37.4,30.5,28.97,SSW,213,0.0,0.0,76,0.00,,SKC,0.00,VWS V14.00,2013-02-14 08:42:00,
2013-02-14 03:50:00,37.4,30.5,28.97,SSW,213,0.0,0.0,76,0.00,,SKC,0.00,VWS V14.00,2013-02-14 08:50:00,
2013-02-14 03:57:00,37.4,30.5,28.97,SSW,213,0.0,0.0,76,0.00,,SKC,0.00,VWS V14.00,2013-02-14 08:57:00,
2013-02-14 04:02:00,37.4,30.5,28.97,SSW,213,0.0,0.0,76,0.00,,SKC,0.00,VWS V14.00,2013-02-14 09:02:00,
2013-02-14 04:07:00,37.2,30.4,28.97,SSW,213,0.0,0.0,76,0.00,,SKC,0.00,VWS V14.00,2013-02-14 09:07:00,
2013-02-14 04:12:00,37.4,30.5,28.97,SSW,213,0.0,0.0,76,0.00,,SKC,0.00,VWS V14.00,2013-02-14 09:12:00,
2013-02-14 04:17:00,37.4,30.5,28.97,SSW,213,0.0,0.0,76,0.00,,SKC,0.00,VWS V14.00,2013-02-14 09:17:00,
2013-02-14 04:22:00,37.4,30.5,28.97,SSW,213,0.0,0.0,76,0.00,,SKC,0.00,VWS V14.00,2013-02-14 09:22:00,
2013-02-14 04:27:00,37.6,30.7,28.97,SSW,213,0.0,0.0,76,0.00,,SKC,0.00,VWS V14.00,2013-02-14 09:27:00,
2013-02-14 04:32:00,37.6,30.7,28.97,SSW,213,0.0,0.0,76,0.00,,SKC,0.00,VWS V14.00,2013-02-14 09:32:00,
2013-02-14 04:37:00,37.6,30.7,28.97,SSW,213,0.0,0.0,76,0.00,,SKC,0.00,VWS V14.00,2013-02-14 09:37:00,
2013-02-14 04:42:00,37.6,30.7,28.97,SSW,213,0.0,0.0,76,0.00,,SKC,0.00,VWS V14.00,2013-02-14 09:42:00,
2013-02-14 04:47:00,37.6,30.7,28.97,SSW,213,0.0,0.0,76,0.00,,SKC,0.00,VWS V14.00,2013-02-14 09:47:00,
2013-02-14 04:52:00,37.6,30.7,28.97,SSW,213,0.0,0.0,76,0.00,,SKC,0.00,VWS V14.00,2013-02-14 09:52:00,
2013-02-14 04:57:00,37.6,30.7,28.97,SSW,213,0.0,0.0,76,0.00,,SKC,0.00,VWS V14.00,2013-02-14 09:57:00,
2013-02-14 05:02:00,37.6,30.7,28.97,SSW,213,0.0,0.0,76,0.00,,SKC,0.00,VWS V14.00,2013-02-14 10:02:00,
2013-02-14 05:07:00,37.6,30.7,28.97,SSW,213,0.0,0.0,76,0.00,,SKC,0.00,VWS V14.00,2013-02-14 10:07:00,
2013-02-14 05:12:00,37.6,30.7,28.97,SSW,213,0.0,0.0,76,0.00,,SKC,0.00,VWS V14.00,2013-02-14 10:12:00,
2013-02-14 05:17:00,37.6,30.7,28.97,SSW,213,0.0,0.0,76,0.00,,SKC,0.00,VWS V14.00,2013-02-14 10:17:00,
2013-02-14 05:22:00,37.4,30.5,28.97,SSW,213,0.0,0.0,76,0.00,,SKC,0.00,VWS V14.00,2013-02-14 10:22:00,
2013-02-14 05:27:00,37.4,30.5,28.97,SSW,213,0.0,0.0,76,0.00,,SKC,0.00,VWS V14.00,2013-02-14 10:27:00,
2013-02-14 05:32:00,37.6,30.7,28.97,SSW,213,0.0,0.0,76,0.00,,SKC,0.00,VWS V14.00,2013-02-14 10:32:00,
2013-02-14 05:37:00,37.6,30.7,28.97,SSW,213,0.0,0.0,76,0.00,,SKC,0.00,VWS V14.00,2013-02-14 10:37:00,
2013-02-14 05:42:00,37.6,30.7,28.97,SSW,213,0.0,0.0,76,0.00,,SKC,0.00,VWS V14.00,2013-02-14 10:42:00,
2013-02-14 05:47:00,37.6,30.7,28.97,SSW,213,0.0,0.0,76,0.00,,SKC,0.00,VWS V14.00,2013-02-14 10:47:00,
2013-02-14 05:52:00,37.6,30.7,28.97,SSW,213,0.0,0.0,76,0.00,,SKC,0.00,VWS V14.00,2013-02-14 10:52:00,
2013-02-14 05:58:00,37.6,31.0,28.97,SSW,213,0.0,0.0,77,0.00,,SKC,0.00,VWS V14.00,2013-02-14 10:58:00,
2013-02-14 06:03:00,37.4,30.9,28.97,SSW,213,0.0,0.0,77,0.00,,SKC,0.00,VWS V14.00,2013-02-14 11:03:00,
2013-02-14 06:08:00,37.6,31.0,28.97,SSW,213,0.0,0.0,77,0.00,,SKC,0.00,VWS V14.00,2013-02-14 11:08:00,
2013-02-14 06:13:00,37.6,31.0,28.97,SSW,213,0.0,0.0,77,0.00,,SKC,0.00,VWS V14.00,2013-02-14 11:13:00,
2013-02-14 06:18:00,37.6,31.0,28.97,SSW,213,0.0,0.0,77,0.00,,SKC,0.00,VWS V14.00,2013-02-14 11:18:00,
2013-02-14 06:23:00,37.6,31.0,28.97,SSW,213,0.0,0.0,77,0.00,,SKC,0.00,VWS V14.00,2013-02-14 11:23:00,
2013-02-14 06:28:00,37.4,30.9,28.97,SSW,213,0.0,0.0,77,0.00,,SKC,0.00,VWS V14.00,2013-02-14 11:28:00,
2013-02-14 06:33:00,37.6,31.0,28.97,SSW,213,0.0,0.0,77,0.00,,SKC,0.00,VWS V14.00,2013-02-14 11:33:00,
2013-02-14 06:38:00,37.6,31.0,28.97,SSW,213,0.0,0.0,77,0.00,,SKC,0.00,VWS V14.00,2013-02-14 11:38:00,
2013-02-14 06:43:00,37.6,31.0,28.97,SSW,213,0.0,0.0,77,0.00,,SKC,0.00,VWS V14.00,2013-02-14 11:43:00,
2013-02-14 06:48:00,37.6,31.0,28.97,SSW,213,0.0,0.0,77,0.00,,SKC,0.00,VWS V14.00,2013-02-14 11:48:00,
2013-02-14 06:53:00,37.6,31.0,28.97,SSW,213,0.0,0.0,77,0.00,,SKC,0.00,VWS V14.00,2013-02-14 11:53:00,
2013-02-14 06:58:00,37.6,31.0,28.97,SSW,213,0.0,0.0,77,0.00,,SKC,0.00,VWS V14.00,2013-02-14 11:58:00,
2013-02-14 07:03:00,37.6,31.0,28.97,SW,214,0.0,0.0,77,0.00,,SKC,0.00,VWS V14.00,2013-02-14 12:03:00,
2013-02-14 07:08:00,37.6,31.0,28.97,SW,214,0.0,0.0,77,0.00,,SKC,0.00,VWS V14.00,2013-02-14 12:08:00,
2013-02-14 07:13:00,37.6,31.0,28.97,SSW,213,0.0,0.0,77,0.00,,SKC,0.00,VWS V14.00,2013-02-14 12:13:00,
2013-02-14 07:20:00,37.6,31.0,28.97,SSW,213,0.0,0.0,77,0.00,,SKC,0.00,VWS V14.00,2013-02-14 12:20:00,
2013-02-14 07:28:00,37.6,31.0,28.97,SSW,213,0.0,0.0,77,0.00,,SKC,0.00,VWS V14.00,2013-02-14 12:28:00,
2013-02-14 07:33:00,37.6,31.0,28.97,SSW,213,0.0,0.0,77,0.00,,SKC,0.00,VWS V14.00,2013-02-14 12:33:00,
2013-02-14 07:38:00,37.6,31.0,28.97,SW,217,0.0,0.0,77,0.00,,SKC,0.00,VWS V14.00,2013-02-14 12:38:00,
2013-02-14 07:43:00,37.6,31.0,28.97,SSW,205,0.0,0.0,77,0.00,,SKC,0.00,VWS V14.00,2013-02-14 12:43:00,
2013-02-14 07:48:00,37.6,31.0,28.97,SW,217,0.0,0.0,77,0.00,,SKC,0.00,VWS V14.00,2013-02-14 12:48:00,
2013-02-14 07:53:00,37.8,31.2,28.97,SSW,192,0.0,0.0,77,0.00,,SKC,0.00,VWS V14.00,2013-02-14 12:53:00,
2013-02-14 07:58:00,37.8,31.2,28.97,SSW,198,0.0,0.0,77,0.00,,SKC,0.00,VWS V14.00,2013-02-14 12:58:00,
2013-02-14 08:03:00,37.8,31.2,29.00,South,189,0.0,0.0,77,0.00,,SKC,0.00,VWS V14.00,2013-02-14 13:03:00,
2013-02-14 08:08:00,37.9,31.4,29.00,SSW,207,0.0,0.0,77,0.00,,SKC,0.00,VWS V14.00,2013-02-14 13:08:00,
2013-02-14 08:13:00,37.9,31.4,29.00,SW,221,0.0,0.0,77,0.00,,SKC,0.00,VWS V14.00,2013-02-14 13:13:00,
2013-02-14 08:18:00,38.1,31.6,29.00,SW,214,0.0,0.0,77,0.00,,SKC,0.00,VWS V14.00,2013-02-14 13:18:00,
2013-02-14 08:23:00,38.1,31.6,29.00,SSW,200,0.0,0.0,77,0.00,,SKC,0.00,VWS V14.00,2013-02-14 13:23:00,
2013-02-14 08:28:00,38.3,31.7,29.00,SSW,200,0.0,0.0,77,0.00,,SKC,0.00,VWS V14.00,2013-02-14 13:28:00,
2013-02-14 08:33:00,38.5,32.2,29.00,SSW,200,0.0,0.0,78,0.00,,SKC,0.00,VWS V14.00,2013-02-14 13:33:00,
2013-02-14 08:38:00,38.7,32.4,29.00,SSW,200,0.0,0.0,78,0.00,,SKC,0.00,VWS V14.00,2013-02-14 13:38:00,
2013-02-14 08:43:00,38.8,32.6,29.00,SW,214,0.0,0.0,78,0.00,,SKC,0.00,VWS V14.00,2013-02-14 13:43:00,
2013-02-14 08:48:00,38.8,32.6,29.00,SSW,213,0.0,0.0,78,0.00,,SKC,0.00,VWS V14.00,2013-02-14 13:48:00,
2013-02-14 08:53:00,39.0,32.8,29.00,SSE,147,0.0,0.0,78,0.00,,SKC,0.00,VWS V14.00,2013-02-14 13:53:00,
2013-02-14 08:58:00,39.2,32.9,29.00,SW,230,0.0,2.7,78,0.00,,SKC,0.00,VWS V14.00,2013-02-14 13:58:00,
2013-02-14 09:03:00,39.4,32.8,29.03,SW,236,0.0,3.6,77,0.00,,SKC,0.00,VWS V14.00,2013-02-14 14:03:00,
2013-02-14 09:08:00,39.7,33.1,29.03,SSE,157,2.7,3.6,77,0.00,,SKC,0.00,VWS V14.00,2013-02-14 14:08:00,
2013-02-14 09:13:00,39.9,33.6,29.03,South,185,0.0,0.0,78,0.00,,SKC,0.00,VWS V14.00,2013-02-14 14:13:00,
2013-02-14 09:18:00,40.1,33.5,29.03,SW,236,0.0,5.4,77,0.00,,SKC,0.00,VWS V14.00,2013-02-14 14:18:00,
2013-02-14 09:23:00,40.5,34.2,29.03,SSW,195,3.2,3.2,78,0.00,,SKC,0.00,VWS V14.00,2013-02-14 14:23:00,
2013-02-14 09:28:00,40.6,34.0,29.03,SSW,202,3.2,4.0,77,0.00,,SKC,0.00,VWS V14.00,2013-02-14 14:28:00,
2013-02-14 09:33:00,40.8,34.2,29.03,SSW,193,0.0,4.9,77,0.00,,SKC,0.00,VWS V14.00,2013-02-14 14:33:00,
2013-02-14 09:38:00,41.0,34.3,29.03,SW,225,3.8,4.9,77,0.00,,SKC,0.00,VWS V14.00,2013-02-14 14:38:00,
2013-02-14 09:43:00,40.8,34.2,29.03,SW,221,0.0,0.0,77,0.00,,SKC,0.00,VWS V14.00,2013-02-14 14:43:00,
2013-02-14 09:48:00,40.8,34.2,29.03,NNW,330,0.0,3.6,77,0.00,,SKC,0.00,VWS V14.00,2013-02-14 14:48:00,
2013-02-14 09:53:00,41.2,34.2,29.03,SSW,202,4.3,4.3,76,0.00,,SKC,0.00,VWS V14.00,2013-02-14 14:53:00,
2013-02-14 09:58:00,41.5,34.2,29.03,SW,225,4.3,5.8,75,0.00,,SKC,0.00,VWS V14.00,2013-02-14 14:58:00,
2013-02-14 10:03:00,41.7,34.4,29.03,NW,324,4.3,6.3,75,0.00,,SKC,0.00,VWS V14.00,2013-02-14 15:03:00,
2013-02-14 10:08:00,42.3,34.9,29.03,SSW,202,0.0,6.3,75,0.00,,SKC,0.00,VWS V14.00,2013-02-14 15:08:00,
2013-02-14 10:13:00,42.8,35.4,29.03,WSW,252,0.0,4.9,75,0.00,,SKC,0.00,VWS V14.00,2013-02-14 15:13:00,
2013-02-14 10:18:00,42.8,35.1,29.03,SSW,212,0.0,4.9,74,0.00,,SKC,0.00,VWS V14.00,2013-02-14 15:18:00,
2013-02-14 10:23:00,42.8,35.1,29.03,SW,225,3.8,4.0,74,0.00,,SKC,0.00,VWS V14.00,2013-02-14 15:23:00,
2013-02-14 10:28:00,43.2,35.5,29.03,SSW,212,0.0,5.8,74,0.00,,SKC,0.00,VWS V14.00,2013-02-14 15:28:00,
2013-02-14 10:33:00,43.7,36.0,29.03,SW,223,0.0,4.9,74,0.00,,SKC,0.00,VWS V14.00,2013-02-14 15:33:00,
2013-02-14 10:38:00,43.7,35.6,29.03,SW,223,0.0,4.9,73,0.00,,SKC,0.00,VWS V14.00,2013-02-14 15:38:00,
2013-02-14 10:43:00,43.7,35.6,29.03,SW,234,3.2,4.9,73,0.00,,SKC,0.00,VWS V14.00,2013-02-14 15:43:00,
2013-02-14 10:48:00,43.5,35.5,29.03,NW,310,0.0,4.9,73,0.00,,SKC,0.00,VWS V14.00,2013-02-14 15:48:00,
2013-02-14 10:53:00,43.2,34.8,29.03,WSW,253,0.0,2.7,72,0.00,,SKC,0.00,VWS V14.00,2013-02-14 15:53:00,
2013-02-14 10:58:00,43.2,34.4,29.03,West,274,0.0,2.7,71,0.00,,SKC,0.00,VWS V14.00,2013-02-14 15:58:00,
2013-02-14 11:03:00,43.3,34.2,29.00,SSW,208,4.8,5.4,70,0.00,,SKC,0.00,VWS V14.00,2013-02-14 16:03:00,
2013-02-14 11:08:00,43.5,34.4,29.00,South,187,4.8,5.4,70,0.00,,SKC,0.00,VWS V14.00,2013-02-14 16:08:00,
2013-02-14 11:13:00,43.9,35.1,29.00,SSW,207,0.0,4.0,71,0.00,,SKC,0.00,VWS V14.00,2013-02-14 16:13:00,
2013-02-14 11:18:00,44.2,35.5,29.00,NNW,334,6.4,6.4,71,0.00,,SKC,0.00,VWS V14.00,2013-02-14 16:18:00,
2013-02-14 11:23:00,44.4,35.3,29.00,NW,321,4.8,4.8,70,0.00,,SKC,0.00,VWS V14.00,2013-02-14 16:23:00,
2013-02-14 11:28:00,44.6,35.4,29.00,SW,233,0.0,4.0,70,0.00,,SKC,0.00,VWS V14.00,2013-02-14 16:28:00,
2013-02-14 11:33:00,44.8,35.2,29.00,NW,316,0.0,3.6,69,0.00,,SKC,0.00,VWS V14.00,2013-02-14 16:33:00,
2013-02-14 11:39:00,45.1,35.6,29.00,SSW,202,4.8,5.8,69,0.00,,SKC,0.00,VWS V14.00,2013-02-14 16:39:00,
2013-02-14 11:44:00,45.5,35.6,29.00,SSW,208,3.2,5.4,68,0.00,,SKC,0.00,VWS V14.00,2013-02-14 16:44:00,
2013-02-14 11:49:00,46.0,36.1,29.00,SW,229,4.3,5.4,68,0.00,,SKC,0.00,VWS V14.00,2013-02-14 16:49:00,
2013-02-14 11:54:00,46.4,36.4,29.00,SSE,168,2.7,4.9,68,0.00,,SKC,0.00,VWS V14.00,2013-02-14 16:54:00,
2013-02-14 11:59:00,46.8,36.8,29.00,WNW,298,0.0,4.9,68,0.00,,SKC,0.00,VWS V14.00,2013-02-14 16:59:00,
2013-02-14 12:04:00,47.1,37.1,29.00,South,189,0.0,5.4,68,0.00,,SKC,0.00,VWS V14.00,2013-02-14 17:04:00,
2013-02-14 12:09:00,47.3,36.9,29.00,NNW,332,0.0,5.4,67,0.00,,SKC,0.00,VWS V14.00,2013-02-14 17:09:00,
2013-02-14 12:14:00,47.5,35.9,29.00,WSW,253,0.0,0.0,64,0.00,,SKC,0.00,VWS V14.00,2013-02-14 17:14:00,
2013-02-14 12:19:00,47.7,36.5,29.00,SSW,194,0.0,5.4,65,0.00,,SKC,0.00,VWS V14.00,2013-02-14 17:19:00,
2013-02-14 12:24:00,48.0,36.8,29.00,NW,316,0.0,3.6,65,0.00,,SKC,0.00,VWS V14.00,2013-02-14 17:24:00,
2013-02-14 12:29:00,48.2,36.6,29.00,SW,222,3.8,3.8,64,0.00,,SKC,0.00,VWS V14.00,2013-02-14 17:29:00,
2013-02-14 12:34:00,48.7,37.1,29.00,South,185,0.0,3.1,64,0.00,,SKC,0.00,VWS V14.00,2013-02-14 17:34:00,
2013-02-14 12:39:00,48.9,37.3,29.00,WSW,254,0.0,4.5,64,0.00,,SKC,0.00,VWS V14.00,2013-02-14 17:39:00,
2013-02-14 12:44:00,49.3,37.2,29.00,WSW,253,2.7,5.4,63,0.00,,SKC,0.00,VWS V14.00,2013-02-14 17:44:00,
2013-02-14 12:49:00,49.6,38.0,29.00,WNW,286,0.0,6.3,64,0.00,,SKC,0.00,VWS V14.00,2013-02-14 17:49:00,
2013-02-14 12:54:00,49.6,37.2,29.00,SW,233,0.0,0.0,62,0.00,,SKC,0.00,VWS V14.00,2013-02-14 17:54:00,
2013-02-14 12:59:00,49.8,37.3,29.00,South,185,4.8,6.3,62,0.00,,SKC,0.00,VWS V14.00,2013-02-14 17:59:00,
2013-02-14 13:04:00,50.4,37.8,29.00,SSW,203,4.8,5.8,62,0.00,,SKC,0.00,VWS V14.00,2013-02-14 18:04:00,
2013-02-14 13:09:00,50.9,38.4,29.00,NNW,328,3.2,5.8,62,0.00,,SKC,0.00,VWS V14.00,2013-02-14 18:09:00,
2013-02-14 13:14:00,50.9,38.0,29.00,SW,222,0.0,5.4,61,0.00,,SKC,0.00,VWS V14.00,2013-02-14 18:14:00,
2013-02-14 13:19:00,51.3,38.3,28.97,SSW,196,3.2,5.4,61,0.00,,SKC,0.00,VWS V14.00,2013-02-14 18:19:00,
2013-02-14 13:24:00,51.8,38.8,28.97,WSW,240,0.0,5.8,61,0.00,,SKC,0.00,VWS V14.00,2013-02-14 18:24:00,
2013-02-14 13:29:00,52.3,39.3,28.97,West,267,0.0,6.3,61,0.00,,SKC,0.00,VWS V14.00,2013-02-14 18:29:00,
2013-02-14 13:34:00,52.3,38.5,28.97,South,190,2.7,4.5,59,0.00,,SKC,0.00,VWS V14.00,2013-02-14 18:34:00,
2013-02-14 13:39:00,52.5,38.6,28.97,SW,220,3.2,5.4,59,0.00,,SKC,0.00,VWS V14.00,2013-02-14 18:39:00,
2013-02-14 13:44:00,52.9,39.0,28.97,WSW,244,0.0,4.0,59,0.00,,SKC,0.00,VWS V14.00,2013-02-14 18:44:00,
2013-02-14 13:49:00,52.9,38.5,28.97,SW,226,3.8,4.5,58,0.00,,SKC,0.00,VWS V14.00,2013-02-14 18:49:00,
2013-02-14 13:54:00,53.2,39.3,28.97,WSW,246,0.0,4.0,59,0.00,,SKC,0.00,VWS V14.00,2013-02-14 18:54:00,
2013-02-14 13:59:00,53.6,38.3,28.97,NW,312,0.0,5.8,56,0.00,,SKC,0.00,VWS V14.00,2013-02-14 18:59:00,
2013-02-14 14:04:00,53.2,38.0,28.97,SSE,155,4.3,5.4,56,0.00,,SKC,0.00,VWS V14.00,2013-02-14 19:04:00,
2013-02-14 14:09:00,53.6,38.3,28.97,SSW,211,4.3,6.3,56,0.00,,SKC,0.00,VWS V14.00,2013-02-14 19:09:00,
2013-02-14 14:14:00,54.1,38.8,28.97,NW,325,5.4,5.4,56,0.00,,SKC,0.00,VWS V14.00,2013-02-14 19:14:00,
2013-02-14 14:19:00,54.1,37.9,28.94,SW,226,4.3,5.8,54,0.00,,SKC,0.00,VWS V14.00,2013-02-14 19:19:00,
2013-02-14 14:24:00,54.0,37.2,28.94,SW,222,0.0,5.8,53,0.00,,SKC,0.00,VWS V14.00,2013-02-14 19:24:00,
2013-02-14 14:29:00,54.0,37.7,28.94,SW,228,7.0,8.1,54,0.00,,SKC,0.00,VWS V14.00,2013-02-14 19:29:00,
2013-02-14 14:34:00,53.8,35.1,28.94,SW,231,3.8,5.8,49,0.00,,SKC,0.00,VWS V14.00,2013-02-14 19:34:00,
2013-02-14 14:39:00,53.8,35.6,28.94,WSW,252,0.0,5.8,50,0.00,,SKC,0.00,VWS V14.00,2013-02-14 19:39:00,
2013-02-14 14:44:00,53.8,36.6,28.94,South,169,4.8,4.9,52,0.00,,SKC,0.00,VWS V14.00,2013-02-14 19:44:00,
2013-02-14 14:49:00,54.3,37.6,28.94,SW,229,0.0,4.9,53,0.00,,SKC,0.00,VWS V14.00,2013-02-14 19:49:00,
2013-02-14 14:54:00,54.7,37.4,28.94,WSW,242,4.3,6.3,52,0.00,,SKC,0.00,VWS V14.00,2013-02-14 19:54:00,
2013-02-14 14:59:00,54.9,38.1,28.94,WSW,238,3.8,6.3,53,0.00,,SKC,0.00,VWS V14.00,2013-02-14 19:59:00,
2013-02-14 15:04:00,55.2,38.4,28.94,West,274,0.0,3.6,53,0.00,,SKC,0.00,VWS V14.00,2013-02-14 20:04:00,
2013-02-14 15:09:00,55.2,37.9,28.94,WSW,240,5.9,5.9,52,0.00,,SKC,0.00,VWS V14.00,2013-02-14 20:09:00,
2013-02-14 15:14:00,55.0,37.8,28.94,WSW,250,0.0,5.4,52,0.00,,SKC,0.00,VWS V14.00,2013-02-14 20:14:00,
2013-02-14 15:19:00,55.0,36.8,28.94,SSW,206,3.2,5.4,50,0.00,,SKC,0.00,VWS V14.00,2013-02-14 20:19:00,
2013-02-14 15:24:00,54.9,37.1,28.94,South,176,0.0,4.9,51,0.00,,SKC,0.00,VWS V14.00,2013-02-14 20:24:00,
2013-02-14 15:29:00,54.9,37.1,28.94,SW,223,0.0,6.3,51,0.00,,SKC,0.00,VWS V14.00,2013-02-14 20:29:00,
2013-02-14 15:34:00,54.9,37.1,28.94,SW,230,0.0,4.9,51,0.00,,SKC,0.00,VWS V14.00,2013-02-14 20:34:00,
2013-02-14 15:39:00,54.9,37.1,28.94,SSW,198,2.7,5.4,51,0.00,,SKC,0.00,VWS V14.00,2013-02-14 20:39:00,
2013-02-14 15:44:00,54.7,36.4,28.94,SW,227,3.2,4.9,50,0.00,,SKC,0.00,VWS V14.00,2013-02-14 20:44:00,
2013-02-14 15:49:00,54.5,36.3,28.94,WSW,249,4.3,6.3,50,0.00,,SKC,0.00,VWS V14.00,2013-02-14 20:49:00,
2013-02-14 15:54:00,54.3,35.6,28.94,SW,229,3.2,7.6,49,0.00,,SKC,0.00,VWS V14.00,2013-02-14 20:54:00,
2013-02-14 15:59:00,54.1,35.9,28.94,NW,319,3.8,7.6,50,0.00,,SKC,0.00,VWS V14.00,2013-02-14 20:59:00,
2013-02-14 16:04:00,54.0,35.2,28.94,SW,226,0.0,4.5,49,0.00,,SKC,0.00,VWS V14.00,2013-02-14 21:04:00,
2013-02-14 16:09:00,53.8,35.1,28.94,South,180,3.8,5.4,49,0.00,,SKC,0.00,VWS V14.00,2013-02-14 21:09:00,
2013-02-14 16:14:00,53.4,34.8,28.94,SSW,203,0.0,5.4,49,0.00,,SKC,0.00,VWS V14.00,2013-02-14 21:14:00,
2013-02-14 16:19:00,53.4,34.8,28.94,WSW,241,3.2,5.4,49,0.00,,SKC,0.00,VWS V14.00,2013-02-14 21:19:00,
2013-02-14 16:24:00,53.2,34.6,28.94,SSW,202,3.8,5.4,49,0.00,,SKC,0.00,VWS V14.00,2013-02-14 21:24:00,
2013-02-14 16:29:00,53.1,33.9,28.94,SW,217,4.3,5.4,48,0.00,,SKC,0.00,VWS V14.00,2013-02-14 21:29:00,
2013-02-14 16:34:00,52.9,33.7,28.94,SSE,156,3.8,5.4,48,0.00,,SKC,0.00,VWS V14.00,2013-02-14 21:34:00,
2013-02-14 16:39:00,52.7,33.6,28.94,SW,222,0.0,5.4,48,0.00,,SKC,0.00,VWS V14.00,2013-02-14 21:39:00,
2013-02-14 16:44:00,52.7,33.6,28.94,SW,215,3.2,5.4,48,0.00,,SKC,0.00,VWS V14.00,2013-02-14 21:44:00,
2013-02-14 16:49:00,52.5,33.4,28.94,SW,214,4.3,5.8,48,0.00,,SKC,0.00,VWS V14.00,2013-02-14 21:49:00,
2013-02-14 16:54:00,52.3,33.2,28.94,WSW,248,0.0,5.8,48,0.00,,SKC,0.00,VWS V14.00,2013-02-14 21:54:00,
2013-02-14 16:59:00,52.2,33.1,28.94,SW,214,0.0,5.8,48,0.00,,SKC,0.00,VWS V14.00,2013-02-14 21:59:00,
2013-02-14 17:04:00,52.0,32.4,28.97,SW,230,2.7,5.8,47,0.00,,SKC,0.00,VWS V14.00,2013-02-14 22:04:00,
2013-02-14 17:09:00,51.8,32.8,28.97,SW,218,0.0,5.8,48,0.00,,SKC,0.00,VWS V14.00,2013-02-14 22:09:00,
2013-02-14 17:14:00,51.6,32.6,28.97,WSW,245,0.0,3.6,48,0.00,,SKC,0.00,VWS V14.00,2013-02-14 22:14:00,
2013-02-14 17:19:00,51.4,32.4,28.94,West,264,0.0,5.4,48,0.00,,SKC,0.00,VWS V14.00,2013-02-14 22:19:00,
2013-02-14 17:24:00,51.3,32.3,28.94,SW,214,0.0,3.1,48,0.00,,SKC,0.00,VWS V14.00,2013-02-14 22:24:00,
2013-02-14 17:29:00,51.1,32.1,28.94,SW,233,0.0,4.9,48,0.00,,SKC,0.00,VWS V14.00,2013-02-14 22:29:00,
2013-02-14 17:34:00,50.9,31.9,28.94,SW,216,0.0,0.0,48,0.00,,SKC,0.00,VWS V14.00,2013-02-14 22:34:00,
2013-02-14 17:39:00,50.7,31.8,28.94,WSW,240,3.8,3.8,48,0.00,,SKC,0.00,VWS V14.00,2013-02-14 22:39:00,
2013-02-14 17:44:00,50.4,31.4,28.94,ESE,123,0.0,4.0,48,0.00,,SKC,0.00,VWS V14.00,2013-02-14 22:44:00,
2013-02-14 17:49:00,50.2,31.3,28.94,West,272,0.0,4.0,48,0.00,,SKC,0.00,VWS V14.00,2013-02-14 22:49:00,
2013-02-14 17:54:00,50.0,31.1,28.94,WSW,239,0.0,0.0,48,0.00,,SKC,0.00,VWS V14.00,2013-02-14 22:54:00,
2013-02-14 17:59:00,49.8,30.9,28.94,SW,227,0.0,0.0,48,0.00,,SKC,0.00,VWS V14.00,2013-02-14 22:59:00,
2013-02-14 18:04:00,49.5,30.6,28.94,SW,216,0.0,3.6,48,0.00,,SKC,0.00,VWS V14.00,2013-02-14 23:04:00,
2013-02-14 18:09:00,49.3,30.4,28.94,SSW,203,0.0,3.6,48,0.00,,SKC,0.00,VWS V14.00,2013-02-14 23:09:00,
2013-02-14 18:14:00,49.1,30.3,28.94,SW,231,0.0,4.0,48,0.00,,SKC,0.00,VWS V14.00,2013-02-14 23:14:00,
2013-02-14 18:19:00,48.9,30.1,28.94,SW,229,2.7,4.0,48,0.00,,SKC,0.00,VWS V14.00,2013-02-14 23:19:00,
2013-02-14 18:24:00,48.7,29.9,28.94,SSW,205,4.3,4.3,48,0.00,,SKC,0.00,VWS V14.00,2013-02-14 23:24:00,
2013-02-14 18:30:00,48.6,29.8,28.94,South,189,0.0,3.6,48,0.00,,SKC,0.00,VWS V14.00,2013-02-14 23:30:00,
2013-02-14 18:35:00,48.2,29.5,28.97,South,189,0.0,0.0,48,0.00,,SKC,0.00,VWS V14.00,2013-02-14 23:35:00,
2013-02-14 18:40:00,48.0,29.3,28.97,South,189,0.0,0.0,48,0.00,,SKC,0.00,VWS V14.00,2013-02-14 23:40:00,
2013-02-14 18:45:00,47.7,29.5,28.97,South,189,0.0,0.0,49,0.00,,SKC,0.00,VWS V14.00,2013-02-14 23:45:00,
2013-02-14 18:50:00,47.5,29.3,28.97,South,189,0.0,0.0,49,0.00,,SKC,0.00,VWS V14.00,2013-02-14 23:50:00,
2013-02-14 18:55:00,47.3,29.1,28.97,South,189,0.0,0.0,49,0.00,,SKC,0.00,VWS V14.00,2013-02-14 23:55:00,
2013-02-14 19:00:00,46.9,28.8,28.97,South,189,0.0,0.0,49,0.00,,SKC,0.00,VWS V14.00,2013-02-15 00:00:00,
2013-02-14 19:05:00,46.8,28.6,28.97,South,189,0.0,0.0,49,0.00,,SKC,0.00,VWS V14.00,2013-02-15 00:05:00,
2013-02-14 19:10:00,46.4,28.3,28.97,South,189,0.0,0.0,49,0.00,,SKC,0.00,VWS V14.00,2013-02-15 00:10:00,
2013-02-14 19:15:00,46.0,28.5,28.97,South,189,0.0,0.0,50,0.00,,SKC,0.00,VWS V14.00,2013-02-15 00:15:00,
2013-02-14 19:20:00,45.9,28.3,28.97,South,189,0.0,0.0,50,0.00,,SKC,0.00,VWS V14.00,2013-02-15 00:20:00,
2013-02-14 19:25:00,45.5,28.0,28.97,South,189,0.0,0.0,50,0.00,,SKC,0.00,VWS V14.00,2013-02-15 00:25:00,
2013-02-14 19:30:00,45.3,27.8,28.97,South,189,0.0,0.0,50,0.00,,SKC,0.00,VWS V14.00,2013-02-15 00:30:00,
2013-02-14 19:35:00,45.0,27.5,28.97,South,189,0.0,0.0,50,0.00,,SKC,0.00,VWS V14.00,2013-02-15 00:35:00,
2013-02-14 19:40:00,44.6,27.1,28.97,South,189,0.0,0.0,50,0.00,,SKC,0.00,VWS V14.00,2013-02-15 00:40:00,
2013-02-14 19:45:00,44.4,27.4,28.97,South,189,0.0,0.0,51,0.00,,SKC,0.00,VWS V14.00,2013-02-15 00:45:00,
2013-02-14 19:50:00,44.1,27.1,28.97,South,189,0.0,0.0,51,0.00,,SKC,0.00,VWS V14.00,2013-02-15 00:50:00,
2013-02-14 19:55:00,43.9,26.9,28.97,South,189,0.0,0.0,51,0.00,,SKC,0.00,VWS V14.00,2013-02-15 00:55:00,
2013-02-14 20:00:00,43.9,26.9,28.97,South,189,0.0,0.0,51,0.00,,SKC,0.00,VWS V14.00,2013-02-15 01:00:00,
2013-02-14 20:05:00,43.7,26.8,28.97,South,189,0.0,0.0,51,0.00,,SKC,0.00,VWS V14.00,2013-02-15 01:05:00,
2013-02-14 20:10:00,43.5,27.1,28.97,South,189,0.0,0.0,52,0.00,,SKC,0.00,VWS V14.00,2013-02-15 01:10:00,
2013-02-14 20:15:00,43.3,26.9,28.97,South,189,0.0,0.0,52,0.00,,SKC,0.00,VWS V14.00,2013-02-15 01:15:00,
2013-02-14 20:20:00,43.0,26.6,28.97,South,189,0.0,0.0,52,0.00,,SKC,0.00,VWS V14.00,2013-02-15 01:20:00,
2013-02-14 20:25:00,43.0,26.6,28.97,South,189,0.0,0.0,52,0.00,,SKC,0.00,VWS V14.00,2013-02-15 01:25:00,
2013-02-14 20:30:00,42.6,26.7,28.97,South,189,0.0,0.0,53,0.00,,SKC,0.00,VWS V14.00,2013-02-15 01:30:00,
2013-02-14 20:35:00,42.4,26.5,28.97,South,189,0.0,0.0,53,0.00,,SKC,0.00,VWS V14.00,2013-02-15 01:35:00,
2013-02-14 20:40:00,42.3,26.4,28.97,South,189,0.0,0.0,53,0.00,,SKC,0.00,VWS V14.00,2013-02-15 01:40:00,
2013-02-14 20:45:00,42.1,26.2,28.97,South,189,0.0,0.0,53,0.00,,SKC,0.00,VWS V14.00,2013-02-15 01:45:00,
2013-02-14 20:50:00,41.7,25.9,28.97,South,189,0.0,0.0,53,0.00,,SKC,0.00,VWS V14.00,2013-02-15 01:50:00,
2013-02-14 20:55:00,41.5,25.7,28.97,South,189,0.0,0.0,53,0.00,,SKC,0.00,VWS V14.00,2013-02-15 01:55:00,
2013-02-14 21:00:00,41.4,26.0,28.97,South,189,0.0,0.0,54,0.00,,SKC,0.00,VWS V14.00,2013-02-15 02:00:00,
2013-02-14 21:05:00,41.4,26.0,28.97,South,189,0.0,0.0,54,0.00,,SKC,0.00,VWS V14.00,2013-02-15 02:05:00,
2013-02-14 21:10:00,41.2,25.8,28.97,South,189,0.0,0.0,54,0.00,,SKC,0.00,VWS V14.00,2013-02-15 02:10:00,
2013-02-14 21:15:00,41.0,25.6,28.97,South,189,0.0,0.0,54,0.00,,SKC,0.00,VWS V14.00,2013-02-15 02:15:00,
2013-02-14 21:20:00,41.0,25.6,28.97,South,189,0.0,0.0,54,0.00,,SKC,0.00,VWS V14.00,2013-02-15 02:20:00,
2013-02-14 21:25:00,40.6,25.8,28.97,South,189,0.0,0.0,55,0.00,,SKC,0.00,VWS V14.00,2013-02-15 02:25:00,
2013-02-14 21:30:00,40.6,25.8,28.97,South,189,0.0,0.0,55,0.00,,SKC,0.00,VWS V14.00,2013-02-15 02:30:00,
2013-02-14 21:35:00,40.5,25.6,28.97,South,189,0.0,0.0,55,0.00,,SKC,0.00,VWS V14.00,2013-02-15 02:35:00,
2013-02-14 21:40:00,40.3,25.4,28.97,South,189,0.0,0.0,55,0.00,,SKC,0.00,VWS V14.00,2013-02-15 02:40:00,
2013-02-14 21:45:00,40.1,25.7,28.97,South,189,0.0,0.0,56,0.00,,SKC,0.00,VWS V14.00,2013-02-15 02:45:00,
2013-02-14 21:50:00,39.9,25.5,28.97,South,189,0.0,0.0,56,0.00,,SKC,0.00,VWS V14.00,2013-02-15 02:50:00,
2013-02-14 21:55:00,39.9,25.5,28.97,South,189,0.0,0.0,56,0.00,,SKC,0.00,VWS V14.00,2013-02-15 02:55:00,
2013-02-14 22:00:00,39.7,25.3,28.97,South,189,0.0,0.0,56,0.00,,SKC,0.00,VWS V14.00,2013-02-15 03:00:00,
2013-02-14 22:05:00,39.4,25.0,28.97,South,189,0.0,0.0,56,0.00,,SKC,0.00,VWS V14.00,2013-02-15 03:05:00,
2013-02-14 22:10:00,39.4,25.0,28.97,South,189,0.0,0.0,56,0.00,,SKC,0.00,VWS V14.00,2013-02-15 03:10:00,
2013-02-14 22:15:00,39.2,24.8,28.97,South,189,0.0,0.0,56,0.00,,SKC,0.00,VWS V14.00,2013-02-15 03:15:00,
2013-02-14 22:20:00,39.2,25.3,28.97,South,189,0.0,0.0,57,0.00,,SKC,0.00,VWS V14.00,2013-02-15 03:20:00,
2013-02-14 22:25:00,39.0,25.1,28.97,South,189,0.0,0.0,57,0.00,,SKC,0.00,VWS V14.00,2013-02-15 03:25:00,
2013-02-14 22:30:00,39.0,25.1,28.97,South,189,0.0,0.0,57,0.00,,SKC,0.00,VWS V14.00,2013-02-15 03:30:00,
2013-02-14 22:35:00,38.8,25.3,28.97,South,189,0.0,0.0,58,0.00,,SKC,0.00,VWS V14.00,2013-02-15 03:35:00,
2013-02-14 22:40:00,38.8,25.3,28.97,South,189,0.0,0.0,58,0.00,,SKC,0.00,VWS V14.00,2013-02-15 03:40:00,
2013-02-14 22:45:00,38.7,25.2,28.97,South,189,0.0,0.0,58,0.00,,SKC,0.00,VWS V14.00,2013-02-15 03:45:00,
2013-02-14 22:50:00,38.7,25.2,28.97,South,189,0.0,0.0,58,0.00,,SKC,0.00,VWS V14.00,2013-02-15 03:50:00,
2013-02-14 22:55:00,38.5,25.0,28.97,South,189,0.0,0.0,58,0.00,,SKC,0.00,VWS V14.00,2013-02-15 03:55:00,
2013-02-14 23:00:00,38.3,24.8,28.97,South,189,0.0,0.0,58,0.00,,SKC,0.00,VWS V14.00,2013-02-15 04:00:00,
2013-02-14 23:05:00,38.1,24.7,28.97,South,189,0.0,0.0,58,0.00,,SKC,0.00,VWS V14.00,2013-02-15 04:05:00,
2013-02-14 23:10:00,37.9,24.5,28.97,South,189,0.0,0.0,58,0.00,,SKC,0.00,VWS V14.00,2013-02-15 04:10:00,
2013-02-14 23:15:00,37.8,24.3,28.97,South,189,0.0,0.0,58,0.00,,SKC,0.00,VWS V14.00,2013-02-15 04:15:00,
2013-02-14 23:20:00,37.6,24.6,28.97,South,189,0.0,0.0,59,0.00,,SKC,0.00,VWS V14.00,2013-02-15 04:20:00,
2013-02-14 23:25:00,37.6,24.6,28.97,South,189,0.0,0.0,59,0.00,,SKC,0.00,VWS V14.00,2013-02-15 04:25:00,
2013-02-14 23:30:00,37.6,24.6,28.97,South,189,0.0,0.0,59,0.00,,SKC,0.00,VWS V14.00,2013-02-15 04:30:00,
2013-02-14 23:35:00,37.4,24.4,28.97,South,189,0.0,0.0,59,0.00,,SKC,0.00,VWS V14.00,2013-02-15 04:35:00,
2013-02-14 23:40:00,37.4,24.8,28.97,South,189,0.0,0.0,60,0.00,,SKC,0.00,VWS V14.00,2013-02-15 04:40:00,
2013-02-14 23:45:00,37.4,24.8,28.97,South,189,0.0,0.0,60,0.00,,SKC,0.00,VWS V14.00,2013-02-15 04:45:00,
2013-02-14 23:50:00,37.4,24.8,28.97,South,189,0.0,0.0,60,0.00,,SKC,0.00,VWS V14.00,2013-02-15 04:50:00,
2013-02-14 23:55:00,37.4,24.8,28.97,South,189,0.0,0.0,60,0.00,,SKC,0.00,VWS V14.00,2013-02-15 04:55:00,